FOK weather

Public forecast

Using degrees Fahrenheit for public forecast. Weather courtesy of forecast.io.

Current aviation weather report (METAR) for Francis S Gabreski Airport

Retrieved 2020/08/12 16:53 UTC (37 minutes ago):

KFOK 121653Z 19007KT 10SM FEW021 29/24 A3005 RMK AO2 SLP174 T02940239

Closest aviation forecast (TAF) to Francis S Gabreski Airport

Closest forecast is Long Island Mac Arthur Airport, 21.5 nm (39.8 km) W. Retrieved 2020/08/12 12:28 UTC (5 hours ago):

TAF KISP 121125Z 1212/1312 21009KT P6SM FEW015 BKN035 FM121400 24006KT P6SM FEW020 SCT040 FM121800 21007KT P6SM VCSH SCT040 BKN250 FM130000 VRB04KT P6SM BKN040